createdAt,value
2022-11-03T00:01:38.617Z,11.70
2022-11-03T00:04:07.924Z,15.60
2022-11-03T00:06:35.967Z,16.73
2022-11-03T00:09:06.832Z,18.93
2022-11-03T00:11:35.810Z,15.50
2022-11-03T00:14:05.057Z,19.23
2022-11-03T00:16:33.932Z,15.70
2022-11-03T00:19:03.754Z,12.27
2022-11-03T00:21:32.141Z,17.50
2022-11-03T00:24:02.500Z,16.83
2022-11-03T00:26:31.903Z,17.07
2022-11-03T00:29:01.808Z,12.23
2022-11-03T00:31:32.217Z,13.30
2022-11-03T00:34:01.532Z,12.37
2022-11-03T00:36:32.957Z,17.43
2022-11-03T00:39:01.393Z,12.13
2022-11-03T00:42:00.181Z,17.07
2022-11-03T00:44:28.557Z,16.40
2022-11-03T00:46:57.581Z,14.00
2022-11-03T00:49:25.831Z,15.30
2022-11-03T00:51:55.522Z,13.97
2022-11-03T00:54:23.772Z,16.27
2022-11-03T00:56:52.055Z,16.37
2022-11-03T01:02:51.380Z,13.10
2022-11-03T01:05:37.070Z,17.03
2022-11-03T01:08:07.607Z,15.47
2022-11-03T01:10:59.416Z,13.47
2022-11-03T01:13:27.737Z,14.43
2022-11-03T01:15:59.636Z,13.60
2022-11-03T01:18:27.933Z,17.60
2022-11-03T01:20:57.077Z,16.87
2022-11-03T01:23:26.760Z,15.30
2022-11-03T01:25:54.985Z,15.63
2022-11-03T01:28:23.273Z,17.03
2022-11-03T01:30:51.584Z,16.30
2022-11-03T01:33:19.806Z,17.73
2022-11-03T01:35:48.066Z,18.03
2022-11-03T01:38:16.384Z,15.47
2022-11-03T01:40:46.035Z,17.73
2022-11-03T01:43:18.121Z,17.07
2022-11-03T01:45:48.716Z,13.47
2022-11-03T01:48:20.048Z,17.13
2022-11-03T01:50:50.069Z,19.33
2022-11-03T01:53:19.533Z,19.17
2022-11-03T01:55:51.993Z,14.53
2022-11-03T01:58:23.293Z,15.93
2022-11-03T02:00:55.008Z,14.93
2022-11-03T02:03:24.470Z,13.77
2022-11-03T02:05:54.061Z,25.50
2022-11-03T02:08:26.199Z,14.37
2022-11-03T02:10:55.960Z,16.20
2022-11-03T02:13:26.678Z,18.00
2022-11-03T02:15:58.329Z,17.00
2022-11-03T02:18:31.055Z,14.37
2022-11-03T02:21:12.700Z,17.10
2022-11-03T02:23:44.789Z,15.90
2022-11-03T02:26:16.732Z,22.13
2022-11-03T02:28:45.102Z,17.57
2022-11-03T02:31:17.929Z,17.97
2022-11-03T02:33:53.024Z,19.43
2022-11-03T02:36:25.551Z,19.53
2022-11-03T02:38:59.232Z,15.90
2022-11-03T02:41:30.944Z,16.03
2022-11-03T02:43:59.581Z,17.17
2022-11-03T02:46:29.189Z,17.80
2022-11-03T02:48:57.923Z,15.80
2022-11-03T02:51:26.559Z,16.87
2022-11-03T02:54:03.644Z,16.73
2022-11-03T02:56:36.414Z,15.20
2022-11-03T02:59:10.142Z,16.97
2022-11-03T03:01:48.352Z,17.77
2022-11-03T03:04:23.836Z,17.57
2022-11-03T03:06:56.969Z,16.23
2022-11-03T03:09:29.813Z,20.30
2022-11-03T03:12:01.809Z,17.53
2022-11-03T03:14:34.865Z,17.00
2022-11-03T03:17:06.331Z,15.83
2022-11-03T03:19:49.062Z,17.47
2022-11-03T03:22:25.515Z,15.63
2022-11-03T03:24:59.104Z,14.60
2022-11-03T03:27:32.878Z,18.77
2022-11-03T03:30:04.884Z,16.83
2022-11-03T03:32:37.589Z,17.90
2022-11-03T03:35:09.589Z,16.87
2022-11-03T03:37:40.898Z,16.87
2022-11-03T03:40:13.432Z,21.00
2022-11-03T03:42:47.074Z,15.73
2022-11-03T03:45:15.861Z,19.05
2022-11-03T03:47:44.733Z,18.87
2022-11-03T03:50:13.420Z,17.87
2022-11-03T03:52:43.075Z,19.67
2022-11-03T03:55:19.403Z,16.37
2022-11-03T03:57:49.385Z,19.80
2022-11-03T04:00:19.388Z,23.07
2022-11-03T04:02:47.861Z,17.67
2022-11-03T04:05:16.296Z,18.70
2022-11-03T04:07:51.646Z,18.77
2022-11-03T04:10:22.956Z,17.57
2022-11-03T04:13:10.609Z,16.63
2022-11-03T04:15:56.280Z,17.60
2022-11-03T04:18:42.493Z,15.27
2022-11-03T04:21:30.976Z,18.97
2022-11-03T04:24:00.373Z,16.60
2022-11-03T04:26:30.128Z,16.27
2022-11-03T04:29:00.306Z,17.90
2022-11-03T04:31:31.414Z,17.87
2022-11-03T04:34:00.444Z,18.73
2022-11-03T04:36:28.808Z,18.87
2022-11-03T04:38:57.775Z,19.47
2022-11-03T04:41:29.826Z,16.67
2022-11-03T04:43:59.668Z,16.40
2022-11-03T04:46:29.383Z,25.57
2022-11-03T04:49:02.205Z,22.30
2022-11-03T04:51:34.434Z,18.27
2022-11-03T04:54:05.790Z,17.67
2022-11-03T04:56:34.925Z,19.20
2022-11-03T04:59:04.700Z,20.83
2022-11-03T05:01:33.671Z,25.53
2022-11-03T05:04:02.085Z,18.37
2022-11-03T05:06:31.425Z,22.30
2022-11-03T05:09:01.818Z,21.70
2022-11-03T05:11:33.400Z,25.23
2022-11-03T05:14:05.736Z,24.10
2022-11-03T05:16:35.059Z,18.83
2022-11-03T05:19:03.567Z,17.57
2022-11-03T05:21:31.816Z,16.43
2022-11-03T05:24:04.588Z,23.73
2022-11-03T05:26:36.180Z,26.97
2022-11-03T05:29:12.789Z,24.90
2022-11-03T05:31:43.050Z,21.07
2022-11-03T05:34:31.247Z,26.43
2022-11-03T05:37:01.463Z,24.70
2022-11-03T05:39:32.779Z,20.83
2022-11-03T05:42:01.647Z,24.43
2022-11-03T05:44:36.887Z,20.73
2022-11-03T05:47:10.410Z,31.57
2022-11-03T05:49:38.803Z,21.97
2022-11-03T05:52:13.866Z,21.40
2022-11-03T05:54:42.180Z,26.10
2022-11-03T05:57:12.874Z,22.43
2022-11-03T05:59:45.757Z,23.00
2022-11-03T06:02:33.386Z,20.80
2022-11-03T06:05:01.951Z,24.03
2022-11-03T06:07:32.837Z,22.07
2022-11-03T06:10:01.103Z,21.40
2022-11-03T06:12:31.865Z,20.93
2022-11-03T06:15:01.577Z,28.43
2022-11-03T06:17:30.695Z,21.77
2022-11-03T06:20:00.910Z,21.93
2022-11-03T06:22:32.229Z,20.17
2022-11-03T06:25:02.812Z,23.03
2022-11-03T06:27:33.351Z,19.63
2022-11-03T06:30:14.280Z,25.63
2022-11-03T06:32:42.608Z,23.07
2022-11-03T06:35:13.803Z,21.67
2022-11-03T06:37:42.469Z,23.13
2022-11-03T06:40:34.860Z,18.73
2022-11-03T06:43:15.999Z,21.93
2022-11-03T06:45:52.105Z,32.00
2022-11-03T06:48:28.925Z,28.98
2022-11-03T06:50:59.477Z,21.87
2022-11-03T06:53:30.805Z,26.93
2022-11-03T06:55:59.398Z,35.00
2022-11-03T06:58:31.431Z,24.30
2022-11-03T07:01:23.275Z,25.07
2022-11-03T07:03:53.889Z,25.47
2022-11-03T07:06:24.657Z,26.53
2022-11-03T07:08:55.292Z,24.40
2022-11-03T07:11:25.257Z,24.77
2022-11-03T07:13:55.089Z,23.00
2022-11-03T07:16:31.352Z,22.60
2022-11-03T07:19:02.525Z,24.70
2022-11-03T07:21:38.119Z,26.87
2022-11-03T07:24:16.787Z,23.27
2022-11-03T07:26:45.104Z,22.13
2022-11-03T07:29:19.743Z,29.47
2022-11-03T07:31:50.608Z,23.60
2022-11-03T07:34:24.896Z,27.90
2022-11-03T07:36:56.101Z,26.03
2022-11-03T07:39:25.012Z,25.83
2022-11-03T07:41:53.485Z,23.50
2022-11-03T07:44:22.707Z,23.60
2022-11-03T07:46:52.617Z,22.27
2022-11-03T07:49:28.660Z,20.23
2022-11-03T07:51:58.601Z,21.13
2022-11-03T07:54:30.721Z,21.17
2022-11-03T07:57:01.573Z,21.63
2022-11-03T07:59:33.768Z,20.83
2022-11-03T08:02:13.257Z,24.97
2022-11-03T08:04:41.587Z,28.13
2022-11-03T08:07:09.842Z,20.73
2022-11-03T08:09:38.328Z,19.53
2022-11-03T08:12:07.067Z,19.10
2022-11-03T08:14:35.460Z,22.37
2022-11-03T08:17:05.440Z,19.93
2022-11-03T08:19:33.723Z,19.37
2022-11-03T08:22:02.078Z,16.17
2022-11-03T08:24:30.497Z,23.50
2022-11-03T08:26:58.849Z,20.90
2022-11-03T08:29:27.422Z,27.57
2022-11-03T08:31:55.717Z,19.47
2022-11-03T08:34:25.464Z,19.17
2022-11-03T08:36:53.732Z,20.27
2022-11-03T08:39:21.986Z,20.87
2022-11-03T08:41:50.216Z,21.40
2022-11-03T08:44:18.511Z,24.37
2022-11-03T08:46:46.761Z,24.00
2022-11-03T08:49:15.012Z,23.33
2022-11-03T08:51:44.966Z,23.13
2022-11-03T08:54:13.527Z,22.07
2022-11-03T08:56:42.161Z,23.37
2022-11-03T08:59:10.382Z,40.27
2022-11-03T09:01:38.704Z,21.40
2022-11-03T09:04:07.089Z,22.50
2022-11-03T09:06:35.417Z,18.83
2022-11-03T09:11:53.408Z,17.37
2022-11-03T09:14:21.773Z,31.40
2022-11-03T09:16:50.121Z,21.58
2022-11-03T09:19:18.419Z,13.90
2022-11-03T09:21:46.720Z,16.77
2022-11-03T09:24:16.400Z,16.43
2022-11-03T09:26:44.702Z,20.88
2022-11-03T09:29:13.064Z,15.40
2022-11-03T09:31:41.336Z,25.05
2022-11-03T09:34:09.608Z,21.05
2022-11-03T09:36:38.336Z,18.83
2022-11-03T09:39:06.689Z,19.33
2022-11-03T09:41:55.780Z,19.70
2022-11-03T09:44:25.142Z,15.68
2022-11-03T09:46:57.811Z,17.08
2022-11-03T09:49:27.466Z,17.45
2022-11-03T09:51:56.830Z,19.48
2022-11-03T09:54:27.059Z,20.17
2022-11-03T09:56:59.250Z,22.55
2022-11-03T09:59:27.530Z,20.88
2022-11-03T10:01:56.193Z,16.08
2022-11-03T10:04:28.651Z,13.45
2022-11-03T10:06:58.198Z,13.93
2022-11-03T10:09:28.655Z,12.68
2022-11-03T10:11:58.389Z,16.08
2022-11-03T10:14:26.712Z,19.05
2022-11-03T10:17:00.319Z,14.23
2022-11-03T10:19:28.940Z,14.90
2022-11-03T10:21:57.315Z,16.27
2022-11-03T10:24:26.983Z,12.88
2022-11-03T10:26:57.381Z,14.93
2022-11-03T10:29:26.897Z,11.55
2022-11-03T10:31:57.147Z,13.75
2022-11-03T10:34:34.291Z,19.30
2022-11-03T10:37:20.989Z,15.10
2022-11-03T10:39:49.869Z,13.43
2022-11-03T10:42:21.726Z,12.80
2022-11-03T10:44:52.882Z,14.65
2022-11-03T10:47:33.870Z,14.40
2022-11-03T10:50:19.815Z,19.65
2022-11-03T10:52:48.442Z,11.82
2022-11-03T10:55:20.578Z,12.63
2022-11-03T10:57:55.688Z,13.60
2022-11-03T11:00:24.338Z,12.82
2022-11-03T11:02:56.879Z,15.52
2022-11-03T11:05:25.974Z,12.05
2022-11-03T11:07:55.836Z,14.18
2022-11-03T11:10:25.754Z,12.80
2022-11-03T11:13:31.161Z,16.80
2022-11-03T11:16:00.960Z,11.55
2022-11-03T11:19:12.740Z,12.73
2022-11-03T11:22:01.858Z,12.20
2022-11-03T11:24:57.837Z,11.00
2022-11-03T11:27:58.753Z,13.25
2022-11-03T11:31:03.829Z,16.25
2022-11-03T11:33:35.438Z,12.85
2022-11-03T11:36:21.477Z,9.90
2022-11-03T11:39:11.229Z,11.85
2022-11-03T11:42:11.918Z,9.48
2022-11-03T11:45:04.440Z,12.68
2022-11-03T11:47:35.980Z,8.40
2022-11-03T11:50:24.913Z,11.02
2022-11-03T11:52:59.013Z,16.35
2022-11-03T11:55:36.912Z,10.05
2022-11-03T11:58:13.828Z,8.23
2022-11-03T12:00:52.683Z,7.88
2022-11-03T12:03:30.206Z,8.77
2022-11-03T12:05:59.940Z,11.20
2022-11-03T12:08:31.086Z,8.98
2022-11-03T12:11:01.831Z,11.90
2022-11-03T12:13:51.545Z,7.88
2022-11-03T12:16:36.276Z,8.38
2022-11-03T12:19:40.976Z,7.25
2022-11-03T12:22:12.631Z,10.52
2022-11-03T12:24:51.720Z,10.55
2022-11-03T12:27:41.811Z,9.57
2022-11-03T12:30:18.944Z,9.93
2022-11-03T12:32:47.737Z,11.43
2022-11-03T12:35:55.124Z,10.48
2022-11-03T12:38:24.807Z,10.05
2022-11-03T12:40:53.855Z,10.00
2022-11-03T12:43:22.117Z,9.93
2022-11-03T12:45:50.379Z,12.32
2022-11-03T12:48:19.713Z,11.80
2022-11-03T12:50:47.941Z,9.85
2022-11-03T12:53:16.183Z,6.57
2022-11-03T12:55:45.842Z,9.95
2022-11-03T12:58:14.041Z,8.35
2022-11-03T13:00:46.348Z,12.45
2022-11-03T13:03:17.977Z,8.68
2022-11-03T13:05:49.232Z,12.20
2022-11-03T13:10:48.022Z,16.88
2022-11-03T13:13:16.241Z,10.30
2022-11-03T13:15:44.511Z,11.48
2022-11-03T13:18:14.101Z,8.88
2022-11-03T13:20:44.294Z,8.25
2022-11-03T13:23:13.706Z,9.43
2022-11-03T13:25:43.499Z,10.60
2022-11-03T13:28:13.231Z,9.02
2022-11-03T13:30:41.539Z,11.63
2022-11-03T13:33:10.215Z,10.25
2022-11-03T13:35:38.762Z,12.77
2022-11-03T13:38:06.968Z,8.00
2022-11-03T13:40:55.606Z,9.30
2022-11-03T13:43:25.301Z,9.45
2022-11-03T13:45:54.044Z,10.75
2022-11-03T13:49:20.006Z,8.82
2022-11-03T13:51:12.202Z,9.00
2022-11-03T13:56:28.758Z,7.53
2022-11-03T14:01:47.134Z,10.80
2022-11-03T14:07:04.223Z,9.98
2022-11-03T14:09:32.674Z,17.73
2022-11-03T14:12:26.816Z,9.90
2022-11-03T14:14:56.433Z,11.75
2022-11-03T14:17:25.507Z,16.10
2022-11-03T14:19:57.884Z,12.40
2022-11-03T14:22:31.496Z,14.38
2022-11-03T14:25:01.091Z,11.73
2022-11-03T14:27:29.897Z,14.23
2022-11-03T14:29:59.595Z,15.85
2022-11-03T14:32:27.964Z,10.57
2022-11-03T14:34:57.575Z,10.55
2022-11-03T14:37:27.275Z,10.70
2022-11-03T14:39:55.676Z,14.93
2022-11-03T14:42:22.992Z,17.23
2022-11-03T14:47:26.607Z,24.05
2022-11-03T14:49:54.815Z,13.25
2022-11-03T14:52:23.017Z,13.98
2022-11-03T14:54:52.257Z,18.70
2022-11-03T14:57:20.529Z,13.98
2022-11-03T14:59:53.239Z,14.73
2022-11-03T15:02:22.097Z,13.50
2022-11-03T15:04:51.776Z,11.48
2022-11-03T15:07:19.990Z,14.00
2022-11-03T15:09:48.221Z,22.57
2022-11-03T15:12:16.424Z,11.60
2022-11-03T15:14:44.623Z,13.27
2022-11-03T15:17:12.901Z,12.47
2022-11-03T15:19:41.085Z,15.80
2022-11-03T15:22:10.864Z,12.87
2022-11-03T15:27:27.260Z,20.38
2022-11-03T15:29:55.563Z,19.53
2022-11-03T15:32:23.755Z,18.90
2022-11-03T15:34:51.994Z,18.03
2022-11-03T15:37:21.663Z,14.97
2022-11-03T15:39:49.910Z,17.37
2022-11-03T15:42:18.199Z,14.80
2022-11-03T15:44:46.466Z,15.37
2022-11-03T15:47:14.632Z,17.67
2022-11-03T15:49:42.817Z,13.37
2022-11-03T15:52:11.168Z,15.57
2022-11-03T15:54:42.579Z,16.30
2022-11-03T15:57:11.150Z,24.93
2022-11-03T15:59:40.125Z,14.53
2022-11-03T16:02:35.122Z,16.70
2022-11-03T16:04:57.249Z,18.20
2022-11-03T16:07:26.082Z,19.20
2022-11-03T16:09:56.448Z,19.63
2022-11-03T16:12:25.088Z,19.63
2022-11-03T16:14:53.468Z,19.43
2022-11-03T16:17:22.823Z,18.53
2022-11-03T16:19:51.491Z,19.37
2022-11-03T16:22:19.792Z,20.50
2022-11-03T16:24:48.695Z,15.57
2022-11-03T16:27:18.389Z,17.00
2022-11-03T16:29:46.583Z,29.60
2022-11-03T16:32:14.800Z,26.20
2022-11-03T16:34:42.950Z,31.90
2022-11-03T16:37:11.286Z,27.53
2022-11-03T16:39:40.117Z,22.90
2022-11-03T16:42:08.406Z,28.07
2022-11-03T16:44:37.986Z,24.60
2022-11-03T16:47:06.622Z,24.27
2022-11-03T16:49:35.288Z,24.23
2022-11-03T16:52:03.472Z,22.03
2022-11-03T16:54:31.722Z,20.37
2022-11-03T16:56:59.942Z,20.80
2022-11-03T16:59:28.544Z,22.50
2022-11-03T17:01:58.267Z,27.03
2022-11-03T17:04:26.728Z,29.98
2022-11-03T17:06:55.037Z,30.27
2022-11-03T17:09:23.292Z,25.73
2022-11-03T17:11:51.488Z,25.33
2022-11-03T17:14:19.699Z,27.73
2022-11-03T17:16:48.740Z,33.72
2022-11-03T17:19:18.975Z,26.00
2022-11-03T17:21:47.309Z,23.47
2022-11-03T17:24:15.533Z,30.30
2022-11-03T17:26:51.685Z,31.50
2022-11-03T17:29:22.564Z,35.45
2022-11-03T17:31:51.482Z,38.40
2022-11-03T17:34:25.168Z,34.63
2022-11-03T17:36:54.293Z,35.73
2022-11-03T17:39:29.692Z,33.37
2022-11-03T17:42:13.182Z,31.83
2022-11-03T17:44:41.426Z,36.73
2022-11-03T17:47:09.709Z,38.10
2022-11-03T17:49:39.421Z,33.87
2022-11-03T17:52:11.403Z,36.23
2022-11-03T17:54:40.216Z,31.57
2022-11-03T17:57:08.486Z,28.03
2022-11-03T17:59:44.122Z,26.60
2022-11-03T18:02:17.441Z,26.90
2022-11-03T18:04:48.156Z,23.00
2022-11-03T18:07:21.786Z,22.73
2022-11-03T18:09:50.493Z,23.67
2022-11-03T18:12:39.119Z,25.73
2022-11-03T18:15:12.296Z,28.60
2022-11-03T18:17:40.694Z,28.73
2022-11-03T18:20:17.387Z,29.10
2022-11-03T18:22:46.591Z,39.77
2022-11-03T18:25:15.624Z,43.13
2022-11-03T18:27:44.328Z,48.20
2022-11-03T18:30:16.726Z,59.83
2022-11-03T18:32:46.980Z,70.23
2022-11-03T18:35:21.703Z,65.40
2022-11-03T18:37:50.355Z,58.73
2022-11-03T18:40:20.322Z,52.43
2022-11-03T18:42:48.762Z,55.10
2022-11-03T18:45:19.042Z,56.77
2022-11-03T18:47:47.270Z,53.33
2022-11-03T18:50:18.366Z,57.53
2022-11-03T18:52:48.900Z,62.77
2022-11-03T18:55:18.245Z,58.80
2022-11-03T18:57:47.061Z,55.47
2022-11-03T19:00:24.517Z,60.40
2022-11-03T19:02:52.727Z,62.33
2022-11-03T19:05:23.462Z,64.13
2022-11-03T19:07:53.156Z,61.70
2022-11-03T19:10:25.408Z,66.93
2022-11-03T19:12:53.645Z,67.43
2022-11-03T19:15:24.184Z,63.43
2022-11-03T19:17:58.123Z,70.60
2022-11-03T19:20:27.773Z,67.27
2022-11-03T19:22:56.057Z,62.90
2022-11-03T19:25:24.829Z,64.07
2022-11-03T19:27:53.181Z,64.00
2022-11-03T19:30:21.546Z,63.50
2022-11-03T19:32:51.793Z,75.93
2022-11-03T19:35:22.238Z,74.63
2022-11-03T19:37:58.767Z,73.73
2022-11-03T19:40:27.065Z,71.37
2022-11-03T19:42:54.855Z,67.63
2022-11-03T19:45:24.255Z,61.17
2022-11-03T19:48:22.554Z,59.87
2022-11-03T19:50:48.756Z,50.37
2022-11-03T19:53:23.505Z,54.37
2022-11-03T19:55:54.804Z,61.50
2022-11-03T19:58:25.072Z,56.97
2022-11-03T20:00:54.105Z,47.43
2022-11-03T20:03:23.270Z,51.53
2022-11-03T20:05:54.418Z,52.63
2022-11-03T20:08:25.814Z,55.70
2022-11-03T20:10:54.448Z,48.10
2022-11-03T20:13:24.748Z,55.67
2022-11-03T20:15:59.126Z,52.20
2022-11-03T20:18:29.121Z,57.53
2022-11-03T20:20:58.252Z,49.30
2022-11-03T20:23:30.726Z,47.03
2022-11-03T20:25:59.513Z,43.10
2022-11-03T20:28:29.559Z,44.23
2022-11-03T20:31:01.089Z,41.50
2022-11-03T20:33:29.541Z,37.70
2022-11-03T20:35:58.482Z,35.37
2022-11-03T20:38:29.111Z,40.67
2022-11-03T20:40:59.374Z,41.53
2022-11-03T20:43:30.143Z,35.00
2022-11-03T20:45:59.035Z,44.38
2022-11-03T20:48:27.335Z,37.20
2022-11-03T20:50:56.406Z,39.57
2022-11-03T20:53:27.415Z,45.07
2022-11-03T20:55:55.718Z,39.00
2022-11-03T20:58:24.005Z,38.87
2022-11-03T21:00:52.282Z,28.53
2022-11-03T21:03:37.974Z,35.43
2022-11-03T21:06:12.981Z,33.03
2022-11-03T21:08:42.692Z,32.23
2022-11-03T21:11:27.429Z,30.13
2022-11-03T21:13:57.721Z,30.77
2022-11-03T21:16:43.964Z,31.80
2022-11-03T21:19:36.840Z,27.80
2022-11-03T21:22:30.756Z,31.27
2022-11-03T21:25:04.722Z,26.47
2022-11-03T21:27:33.844Z,34.03
2022-11-03T21:30:03.147Z,30.17
2022-11-03T21:32:31.434Z,28.93
2022-11-03T21:35:01.771Z,23.23
2022-11-03T21:37:30.027Z,23.67
2022-11-03T21:39:58.288Z,33.47
2022-11-03T21:42:45.640Z,26.63
2022-11-03T21:45:14.785Z,24.80
2022-11-03T21:48:03.056Z,26.77
2022-11-03T21:50:30.325Z,29.07
2022-11-03T21:52:58.931Z,28.33
2022-11-03T21:55:28.572Z,33.47
2022-11-03T21:57:58.221Z,27.33
2022-11-03T22:00:26.548Z,32.87
2022-11-03T22:02:54.854Z,31.10
2022-11-03T22:05:23.074Z,29.77
2022-11-03T22:07:51.485Z,28.10
2022-11-03T22:10:20.601Z,26.90
2022-11-03T22:12:48.896Z,29.17
2022-11-03T22:15:35.960Z,32.40
2022-11-03T22:18:04.829Z,28.67
2022-11-03T22:20:51.103Z,26.67
2022-11-03T22:23:36.718Z,32.67
2022-11-03T22:26:22.513Z,26.30
2022-11-03T22:29:10.789Z,29.80
2022-11-03T22:31:42.175Z,25.10
2022-11-03T22:34:28.275Z,26.43
2022-11-03T22:36:56.573Z,31.30
2022-11-03T22:39:42.209Z,30.27
2022-11-03T22:42:30.318Z,26.20
2022-11-03T22:45:15.704Z,29.47
2022-11-03T22:47:45.484Z,25.60
2022-11-03T22:50:13.743Z,29.17
2022-11-03T22:52:42.029Z,29.70
2022-11-03T22:55:09.542Z,22.30
2022-11-03T22:57:37.813Z,29.80
2022-11-03T23:00:06.858Z,29.90
2022-11-03T23:02:35.231Z,28.30
2022-11-03T23:05:05.375Z,25.60
2022-11-03T23:07:40.782Z,30.93
2022-11-03T23:10:10.269Z,33.47
2022-11-03T23:12:38.601Z,27.73
2022-11-03T23:15:25.605Z,32.27
2022-11-03T23:18:07.704Z,27.87
2022-11-03T23:20:56.283Z,25.88
2022-11-03T23:23:42.009Z,26.47
2022-11-03T23:26:10.330Z,25.00
2022-11-03T23:28:38.861Z,21.83
2022-11-03T23:31:07.490Z,25.60
2022-11-03T23:33:36.036Z,24.83
2022-11-03T23:36:06.917Z,23.87
2022-11-03T23:38:36.101Z,32.03
2022-11-03T23:41:05.560Z,32.80
2022-11-03T23:43:34.398Z,23.23
2022-11-03T23:46:20.448Z,25.53
2022-11-03T23:48:48.919Z,24.47
2022-11-03T23:51:20.295Z,26.23
2022-11-03T23:53:49.154Z,25.73
2022-11-03T23:56:39.976Z,27.77
2022-11-03T23:59:08.944Z,22.33
